createdAt,value
2023-03-13T00:01:47.303Z,61.89
2023-03-13T00:04:15.151Z,61.98
2023-03-13T00:06:43.505Z,61.94
2023-03-13T00:09:15.145Z,61.93
2023-03-13T00:11:44.131Z,62.08
2023-03-13T00:14:12.227Z,62.12
2023-03-13T00:16:40.174Z,61.95
2023-03-13T00:19:08.681Z,62.08
2023-03-13T00:21:41.343Z,62.13
2023-03-13T00:24:11.307Z,62.04
2023-03-13T00:26:39.223Z,61.98
2023-03-13T00:29:07.124Z,61.92
2023-03-13T00:31:34.976Z,62.07
2023-03-13T00:34:04.028Z,62.08
2023-03-13T00:36:35.666Z,62.17
2023-03-13T00:39:05.099Z,62.03
2023-03-13T00:41:36.271Z,61.86
2023-03-13T00:44:04.395Z,61.95
2023-03-13T00:46:32.367Z,61.88
2023-03-13T00:49:00.208Z,61.70
2023-03-13T00:51:28.963Z,61.92
2023-03-13T00:54:00.413Z,62.06
2023-03-13T00:56:28.721Z,62.16
2023-03-13T00:58:56.590Z,62.22
2023-03-13T01:01:26.870Z,62.25
2023-03-13T01:03:57.900Z,62.27
2023-03-13T01:06:28.517Z,62.12
2023-03-13T01:08:59.518Z,62.38
2023-03-13T01:11:30.418Z,62.43
2023-03-13T01:14:00.739Z,62.30
2023-03-13T01:16:30.898Z,62.33
2023-03-13T01:19:04.453Z,62.44
2023-03-13T01:21:32.315Z,62.31
2023-03-13T01:24:00.630Z,62.19
2023-03-13T01:26:28.600Z,62.31
2023-03-13T01:28:56.894Z,62.33
2023-03-13T01:31:30.322Z,62.40
2023-03-13T01:34:01.411Z,62.27
2023-03-13T01:36:30.296Z,62.54
2023-03-13T01:39:00.655Z,62.67
2023-03-13T01:41:30.043Z,62.61
2023-03-13T01:43:58.302Z,62.68
2023-03-13T01:46:32.112Z,62.62
2023-03-13T01:49:20.058Z,62.78
2023-03-13T01:52:27.011Z,62.93
2023-03-13T01:55:06.116Z,62.83
2023-03-13T01:57:43.255Z,63.22
2023-03-13T02:00:16.618Z,63.08
2023-03-13T02:02:47.615Z,63.14
2023-03-13T02:05:16.740Z,63.14
2023-03-13T02:08:03.867Z,63.46
2023-03-13T02:10:32.329Z,63.44
2023-03-13T02:13:01.492Z,63.53
2023-03-13T02:15:30.461Z,63.59
2023-03-13T02:17:58.260Z,63.76
2023-03-13T02:20:26.396Z,63.90
2023-03-13T02:22:59.903Z,64.21
2023-03-13T02:25:50.838Z,64.19
2023-03-13T02:28:25.653Z,64.43
2023-03-13T02:30:55.947Z,64.43
2023-03-13T02:33:26.869Z,64.78
2023-03-13T02:35:54.879Z,64.84
2023-03-13T02:38:28.024Z,65.11
2023-03-13T02:40:56.591Z,65.20
2023-03-13T02:43:30.983Z,65.11
2023-03-13T02:46:11.085Z,65.16
2023-03-13T02:48:54.309Z,65.22
2023-03-13T02:51:52.305Z,65.25
2023-03-13T02:54:27.801Z,65.03
2023-03-13T02:56:57.717Z,65.20
2023-03-13T02:59:25.648Z,65.19
2023-03-13T03:01:54.279Z,65.20
2023-03-13T03:04:25.024Z,65.18
2023-03-13T03:06:56.127Z,65.11
2023-03-13T03:09:24.592Z,65.13
2023-03-13T03:11:55.236Z,65.22
2023-03-13T03:14:23.619Z,65.39
2023-03-13T03:16:53.258Z,65.19
2023-03-13T03:19:21.096Z,65.23
2023-03-13T03:21:49.671Z,65.31
2023-03-13T03:24:19.716Z,65.11
2023-03-13T03:26:47.543Z,64.98
2023-03-13T03:29:22.140Z,64.87
2023-03-13T03:31:52.102Z,64.48
2023-03-13T03:34:20.234Z,64.65
2023-03-13T03:36:48.614Z,64.71
2023-03-13T03:39:16.461Z,64.74
2023-03-13T03:41:44.350Z,64.75
2023-03-13T03:44:12.329Z,64.87
2023-03-13T03:46:51.090Z,64.68
2023-03-13T03:49:18.987Z,64.92
2023-03-13T03:51:46.867Z,64.87
2023-03-13T03:54:14.822Z,64.79
2023-03-13T03:56:43.058Z,64.90
2023-03-13T03:59:12.649Z,64.84
2023-03-13T04:01:46.790Z,64.81
2023-03-13T04:04:17.876Z,64.91
2023-03-13T04:06:49.740Z,64.82
2023-03-13T04:09:18.278Z,65.02
2023-03-13T04:11:46.102Z,65.01
2023-03-13T04:14:14.035Z,64.84
2023-03-13T04:16:42.185Z,64.88
2023-03-13T04:19:11.311Z,65.07
2023-03-13T04:21:39.872Z,65.02
2023-03-13T04:24:15.013Z,65.02
2023-03-13T04:26:44.391Z,65.08
2023-03-13T04:29:12.409Z,65.11
2023-03-13T04:31:50.922Z,65.20
2023-03-13T04:34:24.599Z,65.06
2023-03-13T04:37:24.615Z,65.18
2023-03-13T04:40:12.701Z,65.12
2023-03-13T04:42:59.364Z,65.18
2023-03-13T04:45:46.675Z,65.27
2023-03-13T04:48:42.461Z,65.47
2023-03-13T04:51:33.251Z,65.36
2023-03-13T04:54:31.555Z,65.50
2023-03-13T04:57:31.998Z,65.51
2023-03-13T05:00:25.796Z,65.63
2023-03-13T05:03:32.416Z,65.56
2023-03-13T05:06:31.346Z,65.84
2023-03-13T05:09:10.017Z,66.02
2023-03-13T05:11:58.257Z,65.96
2023-03-13T05:14:45.248Z,65.95
2023-03-13T05:17:33.001Z,65.91
2023-03-13T05:20:27.122Z,66.11
2023-03-13T05:23:21.163Z,65.98
2023-03-13T05:26:02.728Z,66.09
2023-03-13T05:28:50.901Z,66.17
2023-03-13T05:31:27.600Z,66.27
2023-03-13T05:34:21.568Z,66.63
2023-03-13T05:37:07.964Z,66.72
2023-03-13T05:39:58.738Z,66.59
2023-03-13T05:42:45.553Z,66.78
2023-03-13T05:45:43.110Z,66.73
2023-03-13T05:48:29.648Z,66.75
2023-03-13T05:51:23.568Z,66.72
2023-03-13T05:54:15.341Z,66.67
2023-03-13T05:57:03.746Z,66.63
2023-03-13T05:59:41.960Z,66.79
2023-03-13T06:02:23.977Z,66.90
2023-03-13T06:04:52.356Z,66.80
2023-03-13T06:07:20.572Z,66.95
2023-03-13T06:09:49.064Z,66.97
2023-03-13T06:12:17.013Z,66.86
2023-03-13T06:14:44.776Z,66.83
2023-03-13T06:17:22.907Z,66.85
2023-03-13T06:19:50.700Z,66.82
2023-03-13T06:22:19.096Z,66.82
2023-03-13T06:24:49.571Z,66.76
2023-03-13T06:27:17.641Z,66.70
2023-03-13T06:29:45.834Z,66.68
2023-03-13T06:32:14.997Z,66.76
2023-03-13T06:34:43.341Z,66.67
2023-03-13T06:37:11.262Z,66.62
2023-03-13T06:39:39.138Z,66.51
2023-03-13T06:42:07.298Z,66.35
2023-03-13T06:44:35.164Z,66.18
2023-03-13T06:47:03.032Z,66.13
2023-03-13T06:49:30.947Z,66.07
2023-03-13T06:51:59.124Z,65.98
2023-03-13T06:54:27.792Z,65.95
2023-03-13T06:56:55.631Z,65.93
2023-03-13T06:59:23.541Z,65.61
2023-03-13T07:01:51.407Z,65.69
2023-03-13T07:04:20.116Z,65.38
2023-03-13T07:06:48.323Z,65.22
2023-03-13T07:09:16.107Z,65.16
2023-03-13T07:11:43.931Z,65.08
2023-03-13T07:14:17.000Z,65.05
2023-03-13T07:16:46.422Z,64.83
2023-03-13T07:19:15.388Z,64.52
2023-03-13T07:21:44.194Z,64.26
2023-03-13T07:24:12.310Z,63.74
2023-03-13T07:26:42.592Z,63.76
2023-03-13T07:29:16.559Z,63.38
2023-03-13T07:31:44.440Z,63.32
2023-03-13T07:34:12.340Z,63.20
2023-03-13T07:36:41.649Z,63.26
2023-03-13T07:39:09.852Z,63.27
2023-03-13T07:41:39.087Z,63.21
2023-03-13T07:44:07.987Z,63.34
2023-03-13T07:46:35.720Z,63.44
2023-03-13T07:49:03.465Z,63.43
2023-03-13T07:51:43.017Z,63.31
2023-03-13T07:54:11.970Z,63.38
2023-03-13T07:56:40.462Z,63.33
2023-03-13T07:59:09.404Z,63.44
2023-03-13T08:01:37.615Z,63.26
2023-03-13T08:04:05.922Z,63.13
2023-03-13T08:06:37.774Z,62.92
2023-03-13T08:09:06.592Z,62.64
2023-03-13T08:11:35.018Z,62.26
2023-03-13T08:14:03.272Z,62.15
2023-03-13T08:16:34.432Z,61.89
2023-03-13T08:19:05.967Z,61.22
2023-03-13T08:21:35.804Z,60.44
2023-03-13T08:24:07.091Z,59.93
2023-03-13T08:26:37.324Z,59.95
2023-03-13T08:29:10.380Z,59.81
2023-03-13T08:31:43.481Z,60.06
2023-03-13T08:34:12.675Z,60.05
2023-03-13T08:36:40.820Z,60.21
2023-03-13T08:39:14.488Z,59.90
2023-03-13T08:41:42.476Z,60.37
2023-03-13T08:44:11.890Z,60.02
2023-03-13T08:46:40.491Z,59.81
2023-03-13T08:49:09.113Z,59.83
2023-03-13T08:51:37.408Z,59.53
2023-03-13T08:54:05.569Z,59.35
2023-03-13T08:56:34.878Z,59.40
2023-03-13T08:59:04.564Z,58.71
2023-03-13T14:02:37.405Z,63.32
2023-03-13T14:05:15.762Z,63.37
2023-03-13T14:07:50.056Z,63.25
2023-03-13T14:10:30.877Z,63.02
2023-03-13T14:13:00.585Z,62.93
2023-03-13T14:15:30.488Z,62.68
2023-03-13T14:18:28.619Z,62.52
2023-03-13T14:21:01.391Z,62.28
2023-03-13T14:23:45.147Z,62.28
2023-03-13T14:26:16.166Z,62.28
2023-03-13T14:28:47.547Z,62.21
2023-03-13T14:31:24.387Z,61.99
2023-03-13T14:33:53.028Z,62.18
2023-03-13T14:36:20.904Z,61.98
2023-03-13T14:38:57.469Z,61.95
2023-03-13T14:41:36.793Z,62.05
2023-03-13T14:44:06.875Z,62.10
2023-03-13T14:46:36.283Z,61.92
2023-03-13T14:49:25.889Z,61.81
2023-03-13T14:52:29.706Z,61.50
2023-03-13T14:55:08.481Z,61.51
2023-03-13T14:57:36.262Z,61.39
2023-03-13T15:00:29.524Z,61.29
2023-03-13T15:03:20.089Z,61.34
2023-03-13T15:05:48.883Z,61.40
2023-03-13T15:08:16.726Z,61.29
2023-03-13T15:10:45.389Z,61.40
2023-03-13T15:13:32.207Z,61.44
2023-03-13T15:16:01.062Z,61.35
2023-03-13T15:18:31.489Z,61.23
2023-03-13T15:21:18.725Z,61.09
2023-03-13T15:24:02.135Z,60.95
2023-03-13T15:26:30.010Z,60.84
2023-03-13T15:28:57.812Z,59.55
2023-03-13T15:31:28.300Z,57.86
2023-03-13T15:33:58.401Z,54.79
2023-03-13T15:36:27.567Z,51.12
2023-03-13T15:38:55.466Z,48.25
2023-03-13T15:41:23.719Z,45.48
2023-03-13T15:43:52.738Z,44.76
2023-03-13T15:46:21.065Z,42.54
2023-03-13T15:48:48.922Z,42.24
2023-03-13T15:51:17.658Z,43.84
2023-03-13T15:53:46.261Z,44.76
2023-03-13T15:56:19.822Z,43.86
2023-03-13T15:58:48.857Z,43.97
2023-03-13T16:01:18.116Z,45.04
2023-03-13T16:03:46.168Z,46.59
2023-03-13T16:06:21.178Z,48.04
2023-03-13T16:08:49.393Z,49.36
2023-03-13T16:11:18.160Z,50.52
2023-03-13T16:13:46.083Z,50.81
2023-03-13T16:16:21.314Z,51.36
2023-03-13T16:18:53.116Z,52.24
2023-03-13T16:21:29.042Z,53.01
2023-03-13T16:23:56.875Z,53.78
2023-03-13T16:26:29.642Z,54.54
2023-03-13T16:28:58.638Z,55.47
2023-03-13T16:31:29.271Z,56.29
2023-03-13T16:33:58.497Z,56.52
2023-03-13T16:36:30.129Z,57.45
2023-03-13T16:39:02.929Z,57.84
2023-03-13T16:41:32.766Z,58.71
2023-03-13T16:44:01.232Z,59.07
2023-03-13T16:46:37.676Z,59.58
2023-03-13T16:49:06.590Z,59.93
2023-03-13T16:51:34.619Z,60.12
2023-03-13T16:54:03.602Z,60.76
2023-03-13T16:56:33.921Z,60.90
2023-03-13T16:59:08.655Z,60.87
2023-03-13T17:01:36.823Z,61.36
2023-03-13T17:04:04.771Z,61.64
2023-03-13T17:06:38.412Z,62.02
2023-03-13T17:09:12.153Z,62.22
2023-03-13T17:11:40.271Z,62.10
2023-03-13T17:14:09.111Z,62.51
2023-03-13T17:16:41.074Z,62.65
2023-03-13T17:19:14.029Z,63.02
2023-03-13T17:21:42.204Z,63.27
2023-03-13T17:24:11.546Z,63.41
2023-03-13T17:26:40.129Z,63.36
2023-03-13T17:29:18.753Z,63.20
2023-03-13T17:31:46.612Z,63.71
2023-03-13T17:34:15.721Z,63.58
2023-03-13T17:36:44.565Z,63.54
2023-03-13T17:39:14.172Z,64.02
2023-03-13T17:41:41.995Z,63.89
2023-03-13T17:44:09.898Z,63.80
2023-03-13T17:46:43.629Z,63.82
2023-03-13T17:49:13.007Z,63.76
2023-03-13T17:51:41.716Z,63.83
2023-03-13T17:54:10.186Z,63.79
2023-03-13T17:56:40.229Z,63.86
2023-03-13T17:59:13.536Z,63.92
2023-03-13T18:01:42.305Z,64.05
2023-03-13T18:04:11.158Z,63.98
2023-03-13T18:06:42.904Z,64.00
2023-03-13T18:09:16.648Z,64.09
2023-03-13T18:11:44.624Z,63.88
2023-03-13T18:14:13.284Z,64.00
2023-03-13T18:16:50.500Z,63.96
2023-03-13T18:19:23.659Z,63.78
2023-03-13T18:21:55.225Z,63.87
2023-03-13T18:24:23.661Z,63.89
2023-03-13T18:26:51.909Z,63.87
2023-03-13T18:29:26.256Z,63.78
2023-03-13T18:31:56.678Z,63.74
2023-03-13T18:34:26.153Z,63.69
2023-03-13T18:36:55.217Z,63.51
2023-03-13T18:39:23.334Z,63.51
2023-03-13T18:41:52.958Z,63.38
2023-03-13T18:44:21.222Z,63.44
2023-03-13T18:46:51.308Z,63.47
2023-03-13T18:49:22.274Z,63.49
2023-03-13T18:51:53.163Z,63.47
2023-03-13T18:54:21.415Z,63.48
2023-03-13T18:56:49.451Z,63.52
2023-03-13T18:59:22.106Z,63.64
2023-03-13T19:01:51.192Z,63.71
2023-03-13T19:04:21.720Z,63.63
2023-03-13T19:06:50.155Z,63.74
2023-03-13T19:09:42.565Z,63.64
2023-03-13T19:12:10.991Z,63.75
2023-03-13T19:14:39.509Z,63.53
2023-03-13T19:17:15.886Z,63.60
2023-03-13T19:19:44.749Z,63.58
2023-03-13T19:22:14.124Z,63.45
2023-03-13T19:24:42.234Z,63.58
2023-03-13T19:27:13.144Z,63.62
2023-03-13T19:29:41.124Z,63.49
2023-03-13T19:32:18.122Z,63.51
2023-03-13T19:34:47.177Z,63.59
2023-03-13T19:37:16.058Z,63.53
2023-03-13T19:39:44.278Z,63.51
2023-03-13T19:42:12.333Z,63.59
2023-03-13T19:44:41.292Z,63.61
2023-03-13T19:47:14.750Z,63.64
2023-03-13T19:49:43.376Z,63.68
2023-03-13T19:52:11.407Z,63.61
2023-03-13T19:54:39.301Z,63.62
2023-03-13T19:57:10.637Z,63.62
2023-03-13T19:59:40.714Z,63.71
2023-03-13T20:02:11.179Z,63.65
2023-03-13T20:04:39.662Z,63.65
2023-03-13T20:07:08.361Z,63.62
2023-03-13T20:09:36.748Z,63.56
2023-03-13T20:12:05.710Z,63.65
2023-03-13T20:14:33.898Z,63.69
2023-03-13T20:17:03.248Z,63.68
2023-03-13T20:19:31.336Z,63.83
2023-03-13T20:22:03.473Z,64.12
2023-03-13T20:24:33.565Z,64.25
2023-03-13T20:27:02.417Z,64.24
2023-03-13T20:29:30.523Z,64.31
2023-03-13T20:32:00.431Z,64.36
2023-03-13T20:34:31.790Z,64.15
2023-03-13T20:37:01.053Z,64.08
2023-03-13T20:39:28.956Z,64.07
2023-03-13T20:41:57.544Z,64.04
2023-03-13T20:44:25.545Z,63.88
2023-03-13T20:46:53.580Z,63.87
2023-03-13T20:49:21.674Z,63.92
2023-03-13T20:51:49.575Z,63.89
2023-03-13T20:54:17.368Z,63.89
2023-03-13T20:56:45.605Z,64.00
2023-03-13T20:59:13.617Z,63.95
2023-03-13T21:01:41.662Z,63.72
2023-03-13T21:04:09.465Z,63.59
2023-03-13T21:06:37.278Z,63.43
2023-03-13T21:09:05.461Z,63.26
2023-03-13T21:11:33.818Z,63.14
2023-03-13T21:14:02.199Z,62.88
2023-03-13T21:16:30.185Z,62.64
2023-03-13T21:18:58.263Z,62.36
2023-03-13T21:21:26.266Z,62.14
2023-03-13T21:23:54.232Z,61.91
2023-03-13T21:26:22.463Z,61.85
2023-03-13T21:28:52.043Z,61.69
2023-03-13T21:31:19.933Z,61.50
2023-03-13T21:33:48.958Z,61.30
2023-03-13T21:36:21.169Z,61.11
2023-03-13T21:38:49.411Z,61.17
2023-03-13T21:41:19.700Z,60.94
2023-03-13T21:43:48.421Z,60.64
2023-03-13T21:46:18.104Z,60.71
2023-03-13T21:51:19.025Z,60.12
2023-03-13T21:53:46.870Z,59.89
2023-03-13T21:56:15.966Z,59.40
2023-03-13T21:58:45.544Z,59.09
2023-03-13T22:01:14.419Z,58.83
2023-03-13T22:03:42.547Z,58.29
2023-03-13T22:06:19.221Z,57.64
2023-03-13T22:08:49.320Z,57.12
2023-03-13T22:11:18.059Z,56.75
2023-03-13T22:13:45.974Z,56.76
2023-03-13T22:16:13.908Z,56.01
2023-03-13T22:18:43.178Z,55.44
2023-03-13T22:21:11.036Z,55.45
2023-03-13T22:23:39.310Z,55.33
2023-03-13T22:26:07.768Z,55.19
2023-03-13T22:28:35.715Z,54.56
2023-03-13T22:31:04.905Z,55.24
2023-03-13T22:33:33.864Z,55.54
2023-03-13T22:36:01.695Z,55.63
2023-03-13T22:38:30.607Z,55.84
2023-03-13T22:41:00.281Z,56.02
2023-03-13T22:43:28.398Z,56.21
2023-03-13T22:45:57.302Z,56.49
2023-03-13T22:48:25.850Z,56.53
2023-03-13T22:51:01.059Z,56.46
2023-03-13T22:53:29.826Z,56.64
2023-03-13T22:55:57.854Z,56.62
2023-03-13T22:58:26.226Z,56.54
2023-03-13T23:00:55.165Z,56.65
2023-03-13T23:03:23.098Z,56.66
2023-03-13T23:05:50.887Z,56.81
2023-03-13T23:08:19.124Z,56.80
2023-03-13T23:10:47.760Z,56.76
2023-03-13T23:13:15.857Z,56.93
2023-03-13T23:15:58.669Z,57.05
2023-03-13T23:18:27.863Z,57.15
2023-03-13T23:20:55.657Z,57.28
2023-03-13T23:23:23.863Z,57.38
2023-03-13T23:25:51.661Z,57.49
2023-03-13T23:28:19.531Z,57.38
2023-03-13T23:30:47.278Z,57.42
2023-03-13T23:33:15.196Z,57.44
2023-03-13T23:35:44.030Z,57.72
2023-03-13T23:38:12.555Z,57.72
2023-03-13T23:40:40.413Z,57.55
2023-03-13T23:43:08.354Z,57.70
2023-03-13T23:45:36.623Z,57.70
2023-03-13T23:48:04.832Z,57.47
2023-03-13T23:50:32.625Z,57.28
2023-03-13T23:53:00.408Z,57.09
2023-03-13T23:55:28.342Z,57.08
2023-03-13T23:57:56.249Z,56.83
